createdAt,value
2023-02-14T00:04:19.219Z,74.15
2023-02-14T00:09:20.767Z,74.08
2023-02-14T00:14:40.959Z,73.52
2023-02-14T00:19:42.392Z,73.76
2023-02-14T00:24:43.809Z,73.20
2023-02-14T00:29:45.220Z,73.47
2023-02-14T00:34:46.627Z,73.19
2023-02-14T00:39:48.129Z,73.42
2023-02-14T00:44:49.548Z,73.07
2023-02-14T00:49:50.961Z,72.74
2023-02-14T00:54:52.378Z,73.01
2023-02-14T00:59:53.783Z,74.29
2023-02-14T01:04:55.194Z,74.29
2023-02-14T01:09:56.639Z,73.30
2023-02-14T01:14:58.155Z,73.60
2023-02-14T01:19:59.621Z,74.07
2023-02-14T01:25:01.089Z,73.65
2023-02-14T01:30:03.180Z,73.61
2023-02-14T01:35:04.824Z,73.52
2023-02-14T01:40:08.401Z,73.38
2023-02-14T01:45:25.607Z,73.03
2023-02-14T01:50:36.213Z,72.94
2023-02-14T01:55:42.308Z,72.60
2023-02-14T02:01:00.023Z,72.94
2023-02-14T02:06:05.478Z,72.64
2023-02-14T02:11:07.147Z,72.62
2023-02-14T02:16:40.732Z,72.25
2023-02-14T02:22:03.926Z,71.79
2023-02-14T02:27:21.345Z,71.84
2023-02-14T02:32:43.747Z,71.65
2023-02-14T02:38:32.933Z,70.73
2023-02-14T02:43:56.263Z,71.36
2023-02-14T02:49:54.667Z,70.72
2023-02-14T02:55:05.855Z,71.08
2023-02-14T03:00:10.339Z,71.16
2023-02-14T03:05:11.883Z,71.17
2023-02-14T03:10:14.997Z,70.67
2023-02-14T03:15:35.030Z,70.03
2023-02-14T03:21:00.810Z,70.96
2023-02-14T03:26:16.956Z,70.33
2023-02-14T03:31:32.704Z,70.15
2023-02-14T03:36:38.264Z,70.43
2023-02-14T03:41:47.720Z,70.49
2023-02-14T03:46:57.960Z,70.36
2023-02-14T03:52:02.512Z,69.49
2023-02-14T03:57:23.803Z,70.01
2023-02-14T04:02:40.861Z,70.04
2023-02-14T04:07:52.703Z,70.36
2023-02-14T04:12:54.174Z,70.51
2023-02-14T04:18:14.054Z,70.72
2023-02-14T04:23:15.627Z,70.44
2023-02-14T04:28:17.102Z,70.56
2023-02-14T04:33:18.524Z,70.02
2023-02-14T04:38:20.104Z,69.95
2023-02-14T04:43:21.523Z,70.14
2023-02-14T04:48:23.217Z,69.74
2023-02-14T04:53:24.758Z,70.50
2023-02-14T04:58:27.290Z,70.00
2023-02-14T05:03:28.700Z,70.01
2023-02-14T05:08:30.123Z,70.92
2023-02-14T05:13:34.385Z,70.75
2023-02-14T05:18:35.806Z,70.13
2023-02-14T05:23:37.434Z,70.80
2023-02-14T05:28:41.013Z,70.73
2023-02-14T05:33:42.618Z,71.03
2023-02-14T05:38:44.348Z,70.91
2023-02-14T05:43:45.786Z,70.85
2023-02-14T05:48:47.369Z,70.89
2023-02-14T05:53:48.868Z,71.02
2023-02-14T05:58:50.285Z,70.45
2023-02-14T06:03:51.776Z,71.37
2023-02-14T06:08:53.257Z,71.03
2023-02-14T06:13:54.672Z,71.07
2023-02-14T06:18:56.098Z,71.29
2023-02-14T06:23:57.556Z,71.48
2023-02-14T06:28:59.534Z,71.21
2023-02-14T06:34:01.004Z,71.42
2023-02-14T06:39:02.810Z,71.31
2023-02-14T06:44:04.453Z,71.72
2023-02-14T06:49:05.890Z,71.23
2023-02-14T06:54:07.322Z,72.03
2023-02-14T06:59:08.741Z,71.99
2023-02-14T07:04:10.188Z,71.57
2023-02-14T07:09:12.174Z,71.53
2023-02-14T07:14:14.150Z,71.44
2023-02-14T07:19:15.590Z,71.93
2023-02-14T07:24:17.053Z,71.49
2023-02-14T07:29:18.526Z,71.52
2023-02-14T07:34:19.959Z,72.41
2023-02-14T07:39:21.547Z,72.15
2023-02-14T07:44:22.967Z,72.27
2023-02-14T07:49:24.444Z,71.58
2023-02-14T07:54:25.882Z,71.15
2023-02-14T07:59:27.353Z,71.31
2023-02-14T08:04:28.870Z,70.46
2023-02-14T08:09:30.555Z,70.71
2023-02-14T08:14:31.979Z,71.23
2023-02-14T08:19:34.038Z,71.13
2023-02-14T08:24:35.509Z,70.78
2023-02-14T08:29:36.929Z,70.75
2023-02-14T08:34:38.373Z,70.82
2023-02-14T08:39:40.201Z,70.91
2023-02-14T08:44:41.622Z,70.40
2023-02-14T08:49:43.057Z,70.94
2023-02-14T08:54:44.494Z,70.20
2023-02-14T08:59:45.967Z,70.38
2023-02-14T09:04:47.474Z,69.80
2023-02-14T09:09:48.887Z,69.62
2023-02-14T09:14:50.307Z,70.27
2023-02-14T09:19:51.739Z,70.01
2023-02-14T09:24:53.235Z,69.87
2023-02-14T09:29:54.691Z,69.54
2023-02-14T09:34:56.174Z,69.94
2023-02-14T09:39:57.607Z,69.95
2023-02-14T09:45:14.321Z,69.75
2023-02-14T09:50:27.585Z,69.39
2023-02-14T09:55:43.278Z,68.34
2023-02-14T10:01:30.655Z,68.49
2023-02-14T10:06:59.928Z,68.98
2023-02-14T10:12:01.992Z,68.67
2023-02-14T10:17:22.397Z,68.41
2023-02-14T10:22:37.598Z,68.09
2023-02-14T10:27:42.456Z,68.79
2023-02-14T10:33:03.018Z,68.35
2023-02-14T10:38:52.785Z,68.16
2023-02-14T10:44:02.469Z,67.67
2023-02-14T10:49:30.917Z,67.00
2023-02-14T10:54:39.465Z,67.09
2023-02-14T11:00:02.016Z,67.38
2023-02-14T11:05:05.921Z,66.61
2023-02-14T11:10:14.245Z,66.30
2023-02-14T11:15:29.407Z,66.93
2023-02-14T11:20:31.330Z,67.13
2023-02-14T11:25:35.252Z,66.81
2023-02-14T11:30:42.137Z,67.18
2023-02-14T11:35:51.552Z,66.89
2023-02-14T11:40:56.820Z,66.65
2023-02-14T11:46:38.545Z,65.98
2023-02-14T11:51:46.271Z,66.25
2023-02-14T11:56:57.125Z,65.01
2023-02-14T12:02:03.335Z,64.88
2023-02-14T12:07:17.615Z,65.57
2023-02-14T12:12:23.390Z,65.20
2023-02-14T12:17:35.245Z,65.12
2023-02-14T12:22:46.156Z,64.97
2023-02-14T12:27:53.740Z,63.07
2023-02-14T12:32:58.930Z,63.96
2023-02-14T12:38:15.659Z,63.67
2023-02-14T12:43:33.141Z,64.73
2023-02-14T12:48:49.768Z,64.43
2023-02-14T12:54:00.233Z,64.33
2023-02-14T12:59:23.643Z,64.07
2023-02-14T13:04:54.358Z,64.46
2023-02-14T13:10:36.729Z,64.69
2023-02-14T13:15:47.210Z,64.01
2023-02-14T13:20:59.986Z,64.26
2023-02-14T13:26:10.319Z,63.80
2023-02-14T13:31:11.985Z,62.01
2023-02-14T13:36:14.669Z,63.42
2023-02-14T13:41:18.621Z,63.52
2023-02-14T13:46:32.427Z,63.44
2023-02-14T13:51:52.186Z,63.07
2023-02-14T13:56:53.712Z,63.72
2023-02-14T14:01:56.189Z,63.60
2023-02-14T14:07:03.551Z,63.45
2023-02-14T14:12:31.026Z,64.01
2023-02-14T14:17:59.929Z,63.65
2023-02-14T14:23:01.700Z,63.65
2023-02-14T14:28:11.330Z,63.58
2023-02-14T14:33:27.460Z,63.73
2023-02-14T14:38:30.088Z,64.01
2023-02-14T14:43:35.026Z,63.88
2023-02-14T14:48:50.085Z,63.56
2023-02-14T14:53:54.519Z,63.99
2023-02-14T14:58:56.378Z,64.19
2023-02-14T15:04:17.438Z,64.58
2023-02-14T15:09:29.946Z,64.25
2023-02-14T15:14:36.186Z,64.37
2023-02-14T15:19:43.432Z,64.52
2023-02-14T15:24:45.523Z,63.82
2023-02-14T15:30:09.618Z,64.63
2023-02-14T15:35:14.079Z,64.48
2023-02-14T15:40:23.117Z,64.50
2023-02-14T15:45:27.905Z,64.83
2023-02-14T15:50:32.128Z,64.76
2023-02-14T15:55:35.773Z,64.85
2023-02-14T16:00:37.341Z,64.63
2023-02-14T16:05:38.898Z,65.56
2023-02-14T16:10:40.443Z,64.85
2023-02-14T16:15:58.469Z,64.81
2023-02-14T16:21:32.164Z,64.91
2023-02-14T16:26:35.724Z,65.03
2023-02-14T16:31:51.942Z,65.35
2023-02-14T16:37:08.462Z,65.21
2023-02-14T16:42:16.389Z,65.22
2023-02-14T16:47:20.174Z,65.05
2023-02-14T16:52:25.237Z,65.18
2023-02-14T16:57:30.536Z,65.41
2023-02-14T17:02:34.227Z,65.80
2023-02-14T17:07:36.904Z,65.69
2023-02-14T17:12:41.761Z,65.99
2023-02-14T17:17:45.485Z,66.28
2023-02-14T17:22:46.911Z,66.59
2023-02-14T17:27:49.425Z,66.79
2023-02-14T17:32:50.896Z,66.90
2023-02-14T17:37:52.348Z,66.36
2023-02-14T17:42:53.823Z,66.11
2023-02-14T17:47:55.263Z,65.80
2023-02-14T17:52:57.167Z,65.60
2023-02-14T17:57:58.579Z,66.12
2023-02-14T18:03:00.068Z,66.24
2023-02-14T18:08:01.590Z,66.33
2023-02-14T18:13:03.328Z,66.92
2023-02-14T18:18:04.800Z,67.37
2023-02-14T18:23:07.296Z,67.25
2023-02-14T18:28:08.739Z,67.50
2023-02-14T18:33:10.236Z,67.52
2023-02-14T18:38:11.824Z,67.67
2023-02-14T18:43:13.598Z,67.71
2023-02-14T18:48:15.154Z,67.22
2023-02-14T18:53:16.613Z,67.87
2023-02-14T18:58:19.418Z,67.69
2023-02-14T19:03:20.857Z,68.00
2023-02-14T19:08:22.284Z,68.26
2023-02-14T19:13:27.930Z,68.38
2023-02-14T19:18:29.338Z,68.33
2023-02-14T19:23:30.744Z,68.42
2023-02-14T19:28:32.245Z,68.49
2023-02-14T19:33:40.674Z,68.80
2023-02-14T19:38:46.929Z,69.32
2023-02-14T19:43:48.945Z,69.42
2023-02-14T19:48:51.022Z,69.12
2023-02-14T19:53:53.317Z,69.42
2023-02-14T19:58:58.375Z,69.00
2023-02-14T20:04:00.137Z,69.29
2023-02-14T20:09:01.965Z,69.31
2023-02-14T20:14:03.975Z,69.32
2023-02-14T20:19:08.782Z,69.36
2023-02-14T20:24:12.556Z,69.48
2023-02-14T20:29:15.206Z,69.44
2023-02-14T20:34:17.348Z,69.98
2023-02-14T20:39:20.915Z,69.66
2023-02-14T20:44:22.453Z,70.27
2023-02-14T20:49:26.114Z,70.34
2023-02-14T20:54:29.019Z,70.18
2023-02-14T20:59:30.538Z,70.54
2023-02-14T21:04:31.954Z,70.03
2023-02-14T21:09:33.818Z,70.69
2023-02-14T21:14:35.421Z,70.46
2023-02-14T21:19:37.151Z,70.96
2023-02-14T21:24:40.324Z,71.13
2023-02-14T21:29:41.827Z,71.43
2023-02-14T21:34:43.277Z,71.38
2023-02-14T21:39:45.542Z,71.47
2023-02-14T21:45:13.443Z,71.74
2023-02-14T21:50:32.932Z,71.96
2023-02-14T21:55:34.697Z,71.83
2023-02-14T22:00:36.166Z,71.72
2023-02-14T22:05:37.632Z,72.05
2023-02-14T22:10:40.205Z,71.93
2023-02-14T22:15:41.759Z,71.71
2023-02-14T22:20:43.722Z,72.16
2023-02-14T22:25:45.130Z,71.83
2023-02-14T22:30:46.580Z,72.58
2023-02-14T22:35:48.082Z,72.31
2023-02-14T22:40:49.562Z,72.10
2023-02-14T22:45:50.967Z,72.30
2023-02-14T22:50:52.372Z,72.00
2023-02-14T22:55:53.826Z,72.59
2023-02-14T23:00:55.284Z,72.78
2023-02-14T23:05:57.760Z,72.89
2023-02-14T23:11:07.281Z,73.25
2023-02-14T23:16:28.155Z,74.36
2023-02-14T23:21:48.440Z,74.49
2023-02-14T23:26:50.302Z,74.20
2023-02-14T23:31:52.136Z,74.95
2023-02-14T23:36:53.627Z,75.50
2023-02-14T23:41:55.339Z,75.47
2023-02-14T23:46:58.707Z,74.99
2023-02-14T23:52:00.331Z,75.82
2023-02-14T23:57:02.189Z,75.50
